sensor_id;sensor_type;location;lat;lon;timestamp;P1;durP1;ratioP1;P2;durP2;ratioP2
74920;SDS011;63483;47.384;8.860;2024-01-25T00:00:28;1.13;;;0.30;;
74920;SDS011;63483;47.384;8.860;2024-01-25T00:02:53;1.00;;;0.40;;
74920;SDS011;63483;47.384;8.860;2024-01-25T00:05:19;1.37;;;0.20;;
74920;SDS011;63483;47.384;8.860;2024-01-25T00:07:47;1.60;;;0.30;;
74920;SDS011;63483;47.384;8.860;2024-01-25T00:10:13;1.02;;;0.30;;
74920;SDS011;63483;47.384;8.860;2024-01-25T00:12:40;1.45;;;0.40;;
74920;SDS011;63483;47.384;8.860;2024-01-25T00:15:05;1.20;;;0.37;;
74920;SDS011;63483;47.384;8.860;2024-01-25T00:17:30;1.17;;;0.60;;
74920;SDS011;63483;47.384;8.860;2024-01-25T00:19:56;2.20;;;0.60;;
74920;SDS011;63483;47.384;8.860;2024-01-25T00:22:21;0.98;;;0.20;;
74920;SDS011;63483;47.384;8.860;2024-01-25T00:24:46;1.00;;;0.40;;
74920;SDS011;63483;47.384;8.860;2024-01-25T00:27:12;1.60;;;0.37;;
74920;SDS011;63483;47.384;8.860;2024-01-25T00:29:37;1.57;;;0.30;;
74920;SDS011;63483;47.384;8.860;2024-01-25T00:32:02;1.27;;;0.40;;
74920;SDS011;63483;47.384;8.860;2024-01-25T00:34:28;1.70;;;0.43;;
74920;SDS011;63483;47.384;8.860;2024-01-25T00:36:53;1.00;;;0.40;;
74920;SDS011;63483;47.384;8.860;2024-01-25T00:39:19;1.43;;;0.40;;
74920;SDS011;63483;47.384;8.860;2024-01-25T00:41:45;1.40;;;0.63;;
74920;SDS011;63483;47.384;8.860;2024-01-25T00:44:15;3.60;;;0.30;;
74920;SDS011;63483;47.384;8.860;2024-01-25T00:46:41;1.40;;;0.50;;
74920;SDS011;63483;47.384;8.860;2024-01-25T00:49:06;3.23;;;0.50;;
74920;SDS011;63483;47.384;8.860;2024-01-25T00:51:32;1.70;;;0.35;;
74920;SDS011;63483;47.384;8.860;2024-01-25T00:53:58;2.27;;;0.50;;
74920;SDS011;63483;47.384;8.860;2024-01-25T00:56:24;1.40;;;0.40;;
74920;SDS011;63483;47.384;8.860;2024-01-25T00:58:49;2.67;;;0.63;;
74920;SDS011;63483;47.384;8.860;2024-01-25T01:01:15;2.72;;;0.35;;
74920;SDS011;63483;47.384;8.860;2024-01-25T01:03:41;1.83;;;0.40;;
74920;SDS011;63483;47.384;8.860;2024-01-25T01:06:07;1.83;;;0.90;;
74920;SDS011;63483;47.384;8.860;2024-01-25T01:08:33;2.92;;;0.90;;
74920;SDS011;63483;47.384;8.860;2024-01-25T01:10:58;2.47;;;0.50;;
74920;SDS011;63483;47.384;8.860;2024-01-25T01:13:23;3.67;;;0.40;;
74920;SDS011;63483;47.384;8.860;2024-01-25T01:15:49;2.43;;;0.40;;
74920;SDS011;63483;47.384;8.860;2024-01-25T01:18:14;2.80;;;0.50;;
74920;SDS011;63483;47.384;8.860;2024-01-25T01:20:39;2.20;;;0.23;;
74920;SDS011;63483;47.384;8.860;2024-01-25T01:23:05;2.27;;;0.40;;
74920;SDS011;63483;47.384;8.860;2024-01-25T01:25:30;1.67;;;0.60;;
74920;SDS011;63483;47.384;8.860;2024-01-25T01:27:55;2.90;;;0.70;;
74920;SDS011;63483;47.384;8.860;2024-01-25T01:30:21;2.17;;;0.50;;
74920;SDS011;63483;47.384;8.860;2024-01-25T01:32:46;3.83;;;0.50;;
74920;SDS011;63483;47.384;8.860;2024-01-25T01:35:12;2.03;;;0.70;;
74920;SDS011;63483;47.384;8.860;2024-01-25T01:37:37;2.07;;;0.73;;
74920;SDS011;63483;47.384;8.860;2024-01-25T01:40:02;3.67;;;0.60;;
74920;SDS011;63483;47.384;8.860;2024-01-25T01:42:28;3.20;;;0.70;;
74920;SDS011;63483;47.384;8.860;2024-01-25T01:44:53;2.13;;;0.80;;
74920;SDS011;63483;47.384;8.860;2024-01-25T01:47:19;2.50;;;0.43;;
74920;SDS011;63483;47.384;8.860;2024-01-25T01:49:44;1.80;;;0.40;;
74920;SDS011;63483;47.384;8.860;2024-01-25T01:52:09;1.50;;;0.70;;
74920;SDS011;63483;47.384;8.860;2024-01-25T01:54:36;2.97;;;0.75;;
74920;SDS011;63483;47.384;8.860;2024-01-25T01:57:02;1.53;;;0.40;;
74920;SDS011;63483;47.384;8.860;2024-01-25T01:59:27;3.92;;;0.63;;
74920;SDS011;63483;47.384;8.860;2024-01-25T02:01:54;2.22;;;0.30;;
74920;SDS011;63483;47.384;8.860;2024-01-25T02:04:21;2.55;;;0.30;;
74920;SDS011;63483;47.384;8.860;2024-01-25T02:06:46;3.10;;;0.70;;
74920;SDS011;63483;47.384;8.860;2024-01-25T02:09:12;2.07;;;0.60;;
74920;SDS011;63483;47.384;8.860;2024-01-25T02:11:38;2.38;;;0.32;;
74920;SDS011;63483;47.384;8.860;2024-01-25T02:14:03;2.20;;;0.40;;
74920;SDS011;63483;47.384;8.860;2024-01-25T02:16:29;1.93;;;0.60;;
74920;SDS011;63483;47.384;8.860;2024-01-25T02:18:54;1.20;;;0.67;;
74920;SDS011;63483;47.384;8.860;2024-01-25T02:21:22;1.58;;;0.40;;
74920;SDS011;63483;47.384;8.860;2024-01-25T02:23:47;1.53;;;0.30;;
74920;SDS011;63483;47.384;8.860;2024-01-25T02:26:12;1.10;;;0.20;;
74920;SDS011;63483;47.384;8.860;2024-01-25T02:28:38;2.10;;;0.40;;
74920;SDS011;63483;47.384;8.860;2024-01-25T02:31:03;0.80;;;0.27;;
74920;SDS011;63483;47.384;8.860;2024-01-25T02:33:29;0.90;;;0.40;;
74920;SDS011;63483;47.384;8.860;2024-01-25T02:35:54;0.97;;;0.30;;
74920;SDS011;63483;47.384;8.860;2024-01-25T02:38:20;1.20;;;0.53;;
74920;SDS011;63483;47.384;8.860;2024-01-25T02:40:45;1.37;;;0.47;;
74920;SDS011;63483;47.384;8.860;2024-01-25T02:43:10;2.10;;;0.70;;
74920;SDS011;63483;47.384;8.860;2024-01-25T02:45:36;1.07;;;0.43;;
74920;SDS011;63483;47.384;8.860;2024-01-25T02:48:04;1.33;;;0.40;;
74920;SDS011;63483;47.384;8.860;2024-01-25T02:50:29;0.93;;;0.40;;
74920;SDS011;63483;47.384;8.860;2024-01-25T02:52:55;1.53;;;0.30;;
74920;SDS011;63483;47.384;8.860;2024-01-25T02:55:20;0.93;;;0.40;;
74920;SDS011;63483;47.384;8.860;2024-01-25T02:57:45;1.00;;;0.30;;
74920;SDS011;63483;47.384;8.860;2024-01-25T03:00:11;1.17;;;0.50;;
74920;SDS011;63483;47.384;8.860;2024-01-25T03:02:37;2.85;;;0.35;;
74920;SDS011;63483;47.384;8.860;2024-01-25T03:05:02;1.00;;;0.60;;
74920;SDS011;63483;47.384;8.860;2024-01-25T03:07:28;1.33;;;0.50;;
74920;SDS011;63483;47.384;8.860;2024-01-25T03:09:53;2.23;;;0.37;;
74920;SDS011;63483;47.384;8.860;2024-01-25T03:12:19;0.93;;;0.30;;
74920;SDS011;63483;47.384;8.860;2024-01-25T03:14:44;0.80;;;0.30;;
74920;SDS011;63483;47.384;8.860;2024-01-25T03:17:10;2.20;;;0.40;;
74920;SDS011;63483;47.384;8.860;2024-01-25T03:19:37;0.70;;;0.20;;
74920;SDS011;63483;47.384;8.860;2024-01-25T03:22:02;1.37;;;0.40;;
74920;SDS011;63483;47.384;8.860;2024-01-25T03:24:28;0.70;;;0.47;;
74920;SDS011;63483;47.384;8.860;2024-01-25T03:26:53;0.80;;;0.40;;
74920;SDS011;63483;47.384;8.860;2024-01-25T03:29:19;0.90;;;0.57;;
74920;SDS011;63483;47.384;8.860;2024-01-25T03:31:44;0.90;;;0.37;;
74920;SDS011;63483;47.384;8.860;2024-01-25T03:34:09;0.60;;;0.30;;
74920;SDS011;63483;47.384;8.860;2024-01-25T03:36:35;0.87;;;0.57;;
74920;SDS011;63483;47.384;8.860;2024-01-25T03:39:01;1.20;;;0.50;;
74920;SDS011;63483;47.384;8.860;2024-01-25T03:41:26;1.23;;;0.40;;
74920;SDS011;63483;47.384;8.860;2024-01-25T03:43:54;0.50;;;0.30;;
74920;SDS011;63483;47.384;8.860;2024-01-25T03:46:19;0.70;;;0.40;;
74920;SDS011;63483;47.384;8.860;2024-01-25T03:48:45;0.50;;;0.30;;
74920;SDS011;63483;47.384;8.860;2024-01-25T03:51:10;0.40;;;0.20;;
74920;SDS011;63483;47.384;8.860;2024-01-25T03:53:35;0.65;;;0.30;;
74920;SDS011;63483;47.384;8.860;2024-01-25T03:56:00;1.23;;;0.30;;
74920;SDS011;63483;47.384;8.860;2024-01-25T03:58:26;0.60;;;0.30;;
74920;SDS011;63483;47.384;8.860;2024-01-25T04:00:51;0.73;;;0.50;;
74920;SDS011;63483;47.384;8.860;2024-01-25T04:03:16;0.73;;;0.37;;
74920;SDS011;63483;47.384;8.860;2024-01-25T04:05:42;0.60;;;0.30;;
74920;SDS011;63483;47.384;8.860;2024-01-25T04:08:07;0.70;;;0.40;;
74920;SDS011;63483;47.384;8.860;2024-01-25T04:10:33;0.40;;;0.20;;
74920;SDS011;63483;47.384;8.860;2024-01-25T04:12:59;0.50;;;0.20;;
74920;SDS011;63483;47.384;8.860;2024-01-25T04:15:29;0.60;;;0.35;;
74920;SDS011;63483;47.384;8.860;2024-01-25T04:17:54;0.70;;;0.47;;
74920;SDS011;63483;47.384;8.860;2024-01-25T04:20:21;0.77;;;0.30;;
74920;SDS011;63483;47.384;8.860;2024-01-25T04:22:46;0.52;;;0.38;;
74920;SDS011;63483;47.384;8.860;2024-01-25T04:25:12;1.27;;;0.37;;
74920;SDS011;63483;47.384;8.860;2024-01-25T04:27:37;0.60;;;0.40;;
74920;SDS011;63483;47.384;8.860;2024-01-25T04:30:03;0.65;;;0.43;;
74920;SDS011;63483;47.384;8.860;2024-01-25T04:32:29;0.65;;;0.32;;
74920;SDS011;63483;47.384;8.860;2024-01-25T04:34:55;0.80;;;0.50;;
74920;SDS011;63483;47.384;8.860;2024-01-25T04:37:20;0.67;;;0.33;;
74920;SDS011;63483;47.384;8.860;2024-01-25T04:39:45;0.70;;;0.30;;
74920;SDS011;63483;47.384;8.860;2024-01-25T04:42:11;0.70;;;0.37;;
74920;SDS011;63483;47.384;8.860;2024-01-25T04:44:36;0.67;;;0.43;;
74920;SDS011;63483;47.384;8.860;2024-01-25T04:47:01;0.80;;;0.40;;
74920;SDS011;63483;47.384;8.860;2024-01-25T04:49:27;0.70;;;0.40;;
74920;SDS011;63483;47.384;8.860;2024-01-25T04:51:52;1.43;;;0.50;;
74920;SDS011;63483;47.384;8.860;2024-01-25T04:54:17;0.83;;;0.40;;
74920;SDS011;63483;47.384;8.860;2024-01-25T04:56:43;1.20;;;0.47;;
74920;SDS011;63483;47.384;8.860;2024-01-25T04:59:08;0.87;;;0.40;;
74920;SDS011;63483;47.384;8.860;2024-01-25T05:01:33;0.90;;;0.43;;
74920;SDS011;63483;47.384;8.860;2024-01-25T05:03:59;1.30;;;0.73;;
74920;SDS011;63483;47.384;8.860;2024-01-25T05:06:24;0.90;;;0.40;;
74920;SDS011;63483;47.384;8.860;2024-01-25T05:08:50;1.20;;;0.60;;
74920;SDS011;63483;47.384;8.860;2024-01-25T05:11:16;1.20;;;0.50;;
74920;SDS011;63483;47.384;8.860;2024-01-25T05:13:41;0.90;;;0.30;;
74920;SDS011;63483;47.384;8.860;2024-01-25T05:16:06;1.40;;;0.67;;
74920;SDS011;63483;47.384;8.860;2024-01-25T05:18:31;1.00;;;0.50;;
74920;SDS011;63483;47.384;8.860;2024-01-25T05:20:57;1.37;;;0.77;;
74920;SDS011;63483;47.384;8.860;2024-01-25T05:23:23;1.20;;;0.47;;
74920;SDS011;63483;47.384;8.860;2024-01-25T05:25:48;0.80;;;0.40;;
74920;SDS011;63483;47.384;8.860;2024-01-25T05:28:13;1.33;;;0.70;;
74920;SDS011;63483;47.384;8.860;2024-01-25T05:30:38;1.80;;;1.10;;
74920;SDS011;63483;47.384;8.860;2024-01-25T05:33:04;1.43;;;0.83;;
74920;SDS011;63483;47.384;8.860;2024-01-25T05:35:29;1.80;;;1.20;;
74920;SDS011;63483;47.384;8.860;2024-01-25T05:37:55;2.00;;;1.15;;
74920;SDS011;63483;47.384;8.860;2024-01-25T05:40:20;2.60;;;1.93;;
74920;SDS011;63483;47.384;8.860;2024-01-25T05:42:45;2.10;;;1.47;;
74920;SDS011;63483;47.384;8.860;2024-01-25T05:45:11;2.20;;;1.10;;
74920;SDS011;63483;47.384;8.860;2024-01-25T05:47:36;1.40;;;0.80;;
74920;SDS011;63483;47.384;8.860;2024-01-25T05:50:02;1.48;;;0.88;;
74920;SDS011;63483;47.384;8.860;2024-01-25T05:52:27;1.57;;;0.90;;
74920;SDS011;63483;47.384;8.860;2024-01-25T05:54:54;1.90;;;1.33;;
74920;SDS011;63483;47.384;8.860;2024-01-25T05:57:19;2.93;;;1.20;;
74920;SDS011;63483;47.384;8.860;2024-01-25T05:59:45;2.15;;;1.15;;
74920;SDS011;63483;47.384;8.860;2024-01-25T06:02:11;2.03;;;1.20;;
74920;SDS011;63483;47.384;8.860;2024-01-25T06:04:36;2.40;;;1.50;;
74920;SDS011;63483;47.384;8.860;2024-01-25T06:07:02;3.30;;;2.27;;
74920;SDS011;63483;47.384;8.860;2024-01-25T06:09:28;2.30;;;1.40;;
74920;SDS011;63483;47.384;8.860;2024-01-25T06:11:53;1.90;;;1.13;;
74920;SDS011;63483;47.384;8.860;2024-01-25T06:14:19;3.40;;;2.65;;
74920;SDS011;63483;47.384;8.860;2024-01-25T06:16:44;2.17;;;1.30;;
74920;SDS011;63483;47.384;8.860;2024-01-25T06:19:10;2.40;;;1.53;;
74920;SDS011;63483;47.384;8.860;2024-01-25T06:21:35;2.30;;;1.27;;
74920;SDS011;63483;47.384;8.860;2024-01-25T06:24:02;1.88;;;1.02;;
74920;SDS011;63483;47.384;8.860;2024-01-25T06:26:30;1.35;;;0.73;;
74920;SDS011;63483;47.384;8.860;2024-01-25T06:28:56;1.67;;;0.70;;
74920;SDS011;63483;47.384;8.860;2024-01-25T06:31:22;2.15;;;1.00;;
74920;SDS011;63483;47.384;8.860;2024-01-25T06:33:47;1.00;;;0.40;;
74920;SDS011;63483;47.384;8.860;2024-01-25T06:36:15;1.20;;;0.50;;
74920;SDS011;63483;47.384;8.860;2024-01-25T06:38:41;0.98;;;0.43;;
74920;SDS011;63483;47.384;8.860;2024-01-25T06:41:07;0.90;;;0.50;;
74920;SDS011;63483;47.384;8.860;2024-01-25T06:43:32;1.38;;;0.57;;
74920;SDS011;63483;47.384;8.860;2024-01-25T06:45:58;0.60;;;0.40;;
74920;SDS011;63483;47.384;8.860;2024-01-25T06:48:23;1.73;;;0.63;;
74920;SDS011;63483;47.384;8.860;2024-01-25T06:50:48;0.80;;;0.30;;
74920;SDS011;63483;47.384;8.860;2024-01-25T06:53:15;0.73;;;0.20;;
74920;SDS011;63483;47.384;8.860;2024-01-25T06:55:41;0.90;;;0.60;;
74920;SDS011;63483;47.384;8.860;2024-01-25T06:58:06;1.25;;;0.60;;
74920;SDS011;63483;47.384;8.860;2024-01-25T07:00:32;0.90;;;0.47;;
74920;SDS011;63483;47.384;8.860;2024-01-25T07:02:57;0.70;;;0.30;;
74920;SDS011;63483;47.384;8.860;2024-01-25T07:05:22;0.90;;;0.50;;
74920;SDS011;63483;47.384;8.860;2024-01-25T07:07:49;0.73;;;0.50;;
74920;SDS011;63483;47.384;8.860;2024-01-25T07:10:14;0.60;;;0.20;;
74920;SDS011;63483;47.384;8.860;2024-01-25T07:12:39;0.80;;;0.50;;
74920;SDS011;63483;47.384;8.860;2024-01-25T07:15:05;0.67;;;0.30;;
74920;SDS011;63483;47.384;8.860;2024-01-25T07:17:30;0.70;;;0.40;;
74920;SDS011;63483;47.384;8.860;2024-01-25T07:19:56;0.60;;;0.33;;
74920;SDS011;63483;47.384;8.860;2024-01-25T07:22:21;0.90;;;0.50;;
74920;SDS011;63483;47.384;8.860;2024-01-25T07:24:47;0.50;;;0.30;;
74920;SDS011;63483;47.384;8.860;2024-01-25T07:27:12;0.60;;;0.30;;
74920;SDS011;63483;47.384;8.860;2024-01-25T07:29:38;0.60;;;0.30;;
74920;SDS011;63483;47.384;8.860;2024-01-25T07:32:03;0.87;;;0.30;;
74920;SDS011;63483;47.384;8.860;2024-01-25T07:34:29;0.68;;;0.30;;
74920;SDS011;63483;47.384;8.860;2024-01-25T07:36:54;0.50;;;0.17;;
74920;SDS011;63483;47.384;8.860;2024-01-25T07:39:20;2.97;;;0.40;;
74920;SDS011;63483;47.384;8.860;2024-01-25T07:41:45;1.47;;;0.30;;
74920;SDS011;63483;47.384;8.860;2024-01-25T07:44:11;0.70;;;0.27;;
74920;SDS011;63483;47.384;8.860;2024-01-25T07:46:36;0.60;;;0.20;;
74920;SDS011;63483;47.384;8.860;2024-01-25T07:49:02;0.70;;;0.30;;
74920;SDS011;63483;47.384;8.860;2024-01-25T07:51:27;0.70;;;0.33;;
74920;SDS011;63483;47.384;8.860;2024-01-25T07:53:53;0.60;;;0.25;;
74920;SDS011;63483;47.384;8.860;2024-01-25T07:56:19;0.77;;;0.30;;
74920;SDS011;63483;47.384;8.860;2024-01-25T07:58:46;1.00;;;0.60;;
74920;SDS011;63483;47.384;8.860;2024-01-25T08:01:13;0.60;;;0.20;;
74920;SDS011;63483;47.384;8.860;2024-01-25T08:03:42;0.80;;;0.43;;
74920;SDS011;63483;47.384;8.860;2024-01-25T08:06:08;0.70;;;0.20;;
74920;SDS011;63483;47.384;8.860;2024-01-25T08:08:33;1.17;;;0.50;;
74920;SDS011;63483;47.384;8.860;2024-01-25T08:10:58;0.70;;;0.30;;
74920;SDS011;63483;47.384;8.860;2024-01-25T08:13:24;0.73;;;0.20;;
74920;SDS011;63483;47.384;8.860;2024-01-25T08:15:50;0.80;;;0.40;;
74920;SDS011;63483;47.384;8.860;2024-01-25T08:18:16;0.70;;;0.30;;
74920;SDS011;63483;47.384;8.860;2024-01-25T08:20:43;1.00;;;0.38;;
74920;SDS011;63483;47.384;8.860;2024-01-25T08:23:09;0.70;;;0.30;;
74920;SDS011;63483;47.384;8.860;2024-01-25T08:25:35;0.70;;;0.30;;
74920;SDS011;63483;47.384;8.860;2024-01-25T08:28:00;0.90;;;0.50;;
74920;SDS011;63483;47.384;8.860;2024-01-25T08:30:25;0.90;;;0.40;;
74920;SDS011;63483;47.384;8.860;2024-01-25T08:32:51;0.60;;;0.30;;
74920;SDS011;63483;47.384;8.860;2024-01-25T08:35:16;0.70;;;0.50;;
74920;SDS011;63483;47.384;8.860;2024-01-25T08:37:42;1.40;;;0.93;;
74920;SDS011;63483;47.384;8.860;2024-01-25T08:40:08;1.23;;;0.37;;
74920;SDS011;63483;47.384;8.860;2024-01-25T08:42:34;1.10;;;0.52;;
74920;SDS011;63483;47.384;8.860;2024-01-25T08:45:00;0.80;;;0.40;;
74920;SDS011;63483;47.384;8.860;2024-01-25T08:47:25;1.10;;;0.47;;
74920;SDS011;63483;47.384;8.860;2024-01-25T08:49:50;1.17;;;0.50;;
74920;SDS011;63483;47.384;8.860;2024-01-25T08:52:16;0.80;;;0.40;;
74920;SDS011;63483;47.384;8.860;2024-01-25T08:54:41;0.80;;;0.30;;
74920;SDS011;63483;47.384;8.860;2024-01-25T08:57:07;0.67;;;0.37;;
74920;SDS011;63483;47.384;8.860;2024-01-25T08:59:33;0.70;;;0.40;;
74920;SDS011;63483;47.384;8.860;2024-01-25T09:02:00;0.60;;;0.25;;
74920;SDS011;63483;47.384;8.860;2024-01-25T09:04:25;0.70;;;0.40;;
74920;SDS011;63483;47.384;8.860;2024-01-25T09:06:51;0.73;;;0.40;;
74920;SDS011;63483;47.384;8.860;2024-01-25T09:09:17;0.80;;;0.20;;
74920;SDS011;63483;47.384;8.860;2024-01-25T09:11:42;1.05;;;0.50;;
74920;SDS011;63483;47.384;8.860;2024-01-25T09:14:07;0.80;;;0.40;;
74920;SDS011;63483;47.384;8.860;2024-01-25T09:16:33;0.70;;;0.23;;
74920;SDS011;63483;47.384;8.860;2024-01-25T09:18:58;1.00;;;0.50;;
74920;SDS011;63483;47.384;8.860;2024-01-25T09:21:24;0.57;;;0.20;;
74920;SDS011;63483;47.384;8.860;2024-01-25T09:23:53;0.80;;;0.40;;
74920;SDS011;63483;47.384;8.860;2024-01-25T09:26:18;0.60;;;0.20;;
74920;SDS011;63483;47.384;8.860;2024-01-25T09:28:44;0.70;;;0.30;;
74920;SDS011;63483;47.384;8.860;2024-01-25T09:31:09;0.80;;;0.20;;
74920;SDS011;63483;47.384;8.860;2024-01-25T09:33:34;0.83;;;0.50;;
74920;SDS011;63483;47.384;8.860;2024-01-25T09:36:00;0.67;;;0.30;;
74920;SDS011;63483;47.384;8.860;2024-01-25T09:38:25;0.70;;;0.20;;
74920;SDS011;63483;47.384;8.860;2024-01-25T09:40:50;0.90;;;0.33;;
74920;SDS011;63483;47.384;8.860;2024-01-25T09:43:16;0.70;;;0.20;;
74920;SDS011;63483;47.384;8.860;2024-01-25T09:45:42;1.05;;;0.65;;
74920;SDS011;63483;47.384;8.860;2024-01-25T09:48:09;1.53;;;0.30;;
74920;SDS011;63483;47.384;8.860;2024-01-25T09:50:34;0.70;;;0.40;;
74920;SDS011;63483;47.384;8.860;2024-01-25T09:53:02;0.90;;;0.30;;
74920;SDS011;63483;47.384;8.860;2024-01-25T09:55:30;0.65;;;0.30;;
74920;SDS011;63483;47.384;8.860;2024-01-25T09:58:00;1.55;;;0.40;;
74920;SDS011;63483;47.384;8.860;2024-01-25T10:00:25;0.63;;;0.30;;
74920;SDS011;63483;47.384;8.860;2024-01-25T10:02:51;0.80;;;0.50;;
74920;SDS011;63483;47.384;8.860;2024-01-25T10:05:18;0.90;;;0.40;;
74920;SDS011;63483;47.384;8.860;2024-01-25T10:07:44;1.00;;;0.50;;
74920;SDS011;63483;47.384;8.860;2024-01-25T10:10:11;0.93;;;0.50;;
74920;SDS011;63483;47.384;8.860;2024-01-25T10:12:37;0.80;;;0.52;;
74920;SDS011;63483;47.384;8.860;2024-01-25T10:15:05;1.05;;;0.40;;
74920;SDS011;63483;47.384;8.860;2024-01-25T10:17:31;0.80;;;0.50;;
74920;SDS011;63483;47.384;8.860;2024-01-25T10:19:56;1.23;;;0.50;;
74920;SDS011;63483;47.384;8.860;2024-01-25T10:22:22;0.90;;;0.30;;
74920;SDS011;63483;47.384;8.860;2024-01-25T10:24:48;0.90;;;0.40;;
74920;SDS011;63483;47.384;8.860;2024-01-25T10:27:15;1.33;;;0.47;;
74920;SDS011;63483;47.384;8.860;2024-01-25T10:29:41;1.17;;;0.65;;
74920;SDS011;63483;47.384;8.860;2024-01-25T10:32:06;0.90;;;0.30;;
74920;SDS011;63483;47.384;8.860;2024-01-25T10:34:35;0.82;;;0.20;;
74920;SDS011;63483;47.384;8.860;2024-01-25T10:37:07;1.20;;;0.40;;
74920;SDS011;63483;47.384;8.860;2024-01-25T10:39:33;1.10;;;0.43;;
74920;SDS011;63483;47.384;8.860;2024-01-25T10:41:59;0.90;;;0.40;;
74920;SDS011;63483;47.384;8.860;2024-01-25T10:44:25;0.95;;;0.35;;
74920;SDS011;63483;47.384;8.860;2024-01-25T10:46:51;2.60;;;0.73;;
74920;SDS011;63483;47.384;8.860;2024-01-25T10:49:17;2.10;;;0.60;;
74920;SDS011;63483;47.384;8.860;2024-01-25T10:51:43;1.30;;;0.68;;
74920;SDS011;63483;47.384;8.860;2024-01-25T10:54:10;1.20;;;0.60;;
74920;SDS011;63483;47.384;8.860;2024-01-25T10:56:43;1.33;;;0.50;;
74920;SDS011;63483;47.384;8.860;2024-01-25T10:59:12;1.10;;;0.52;;
74920;SDS011;63483;47.384;8.860;2024-01-25T11:01:42;1.42;;;0.77;;
74920;SDS011;63483;47.384;8.860;2024-01-25T11:04:15;1.42;;;0.60;;
74920;SDS011;63483;47.384;8.860;2024-01-25T11:06:41;1.05;;;0.40;;
74920;SDS011;63483;47.384;8.860;2024-01-25T11:09:07;1.13;;;0.50;;
74920;SDS011;63483;47.384;8.860;2024-01-25T11:11:36;1.40;;;0.70;;
74920;SDS011;63483;47.384;8.860;2024-01-25T11:14:04;2.05;;;0.70;;
74920;SDS011;63483;47.384;8.860;2024-01-25T11:16:38;1.20;;;0.60;;
74920;SDS011;63483;47.384;8.860;2024-01-25T11:19:07;1.38;;;0.90;;
74920;SDS011;63483;47.384;8.860;2024-01-25T11:21:45;1.80;;;0.80;;
74920;SDS011;63483;47.384;8.860;2024-01-25T11:24:22;1.52;;;0.93;;
74920;SDS011;63483;47.384;8.860;2024-01-25T11:26:49;1.80;;;1.10;;
74920;SDS011;63483;47.384;8.860;2024-01-25T11:29:19;2.07;;;1.07;;
74920;SDS011;63483;47.384;8.860;2024-01-25T11:31:47;1.60;;;1.00;;
74920;SDS011;63483;47.384;8.860;2024-01-25T11:34:14;1.50;;;1.08;;
74920;SDS011;63483;47.384;8.860;2024-01-25T11:36:43;1.50;;;1.00;;
74920;SDS011;63483;47.384;8.860;2024-01-25T11:39:09;1.55;;;0.95;;
74920;SDS011;63483;47.384;8.860;2024-01-25T11:41:35;2.03;;;1.50;;
74920;SDS011;63483;47.384;8.860;2024-01-25T11:44:03;3.40;;;1.50;;
74920;SDS011;63483;47.384;8.860;2024-01-25T11:46:29;1.83;;;1.27;;
74920;SDS011;63483;47.384;8.860;2024-01-25T11:48:55;1.80;;;0.90;;
74920;SDS011;63483;47.384;8.860;2024-01-25T11:51:20;1.93;;;1.37;;
74920;SDS011;63483;47.384;8.860;2024-01-25T11:53:46;2.00;;;1.30;;
74920;SDS011;63483;47.384;8.860;2024-01-25T11:56:21;1.97;;;1.07;;
74920;SDS011;63483;47.384;8.860;2024-01-25T11:58:51;1.75;;;1.10;;
74920;SDS011;63483;47.384;8.860;2024-01-25T12:01:17;1.53;;;1.03;;
74920;SDS011;63483;47.384;8.860;2024-01-25T12:03:45;2.40;;;1.20;;
74920;SDS011;63483;47.384;8.860;2024-01-25T12:06:10;1.80;;;1.17;;
74920;SDS011;63483;47.384;8.860;2024-01-25T12:08:37;3.23;;;1.30;;
74920;SDS011;63483;47.384;8.860;2024-01-25T12:11:06;1.50;;;0.90;;
74920;SDS011;63483;47.384;8.860;2024-01-25T12:13:35;2.25;;;1.33;;
74920;SDS011;63483;47.384;8.860;2024-01-25T12:16:02;2.58;;;1.60;;
74920;SDS011;63483;47.384;8.860;2024-01-25T12:18:28;2.30;;;1.40;;
74920;SDS011;63483;47.384;8.860;2024-01-25T12:20:55;2.43;;;1.40;;
74920;SDS011;63483;47.384;8.860;2024-01-25T12:23:22;1.92;;;1.13;;
74920;SDS011;63483;47.384;8.860;2024-01-25T12:25:47;2.10;;;1.60;;
74920;SDS011;63483;47.384;8.860;2024-01-25T12:28:13;2.22;;;1.30;;
74920;SDS011;63483;47.384;8.860;2024-01-25T12:30:39;2.50;;;1.33;;
74920;SDS011;63483;47.384;8.860;2024-01-25T12:33:04;2.00;;;1.00;;
74920;SDS011;63483;47.384;8.860;2024-01-25T12:35:29;2.83;;;1.40;;
74920;SDS011;63483;47.384;8.860;2024-01-25T12:37:54;2.07;;;1.20;;
74920;SDS011;63483;47.384;8.860;2024-01-25T12:40:20;3.47;;;1.27;;
74920;SDS011;63483;47.384;8.860;2024-01-25T12:42:45;2.30;;;1.50;;
74920;SDS011;63483;47.384;8.860;2024-01-25T12:45:11;1.93;;;1.20;;
74920;SDS011;63483;47.384;8.860;2024-01-25T12:47:36;2.50;;;1.70;;
74920;SDS011;63483;47.384;8.860;2024-01-25T12:50:01;2.70;;;1.70;;
74920;SDS011;63483;47.384;8.860;2024-01-25T12:52:27;2.50;;;1.57;;
74920;SDS011;63483;47.384;8.860;2024-01-25T12:54:52;1.87;;;1.07;;
74920;SDS011;63483;47.384;8.860;2024-01-25T12:57:18;2.23;;;1.40;;
74920;SDS011;63483;47.384;8.860;2024-01-25T12:59:43;2.40;;;1.60;;
74920;SDS011;63483;47.384;8.860;2024-01-25T13:02:10;2.38;;;1.70;;
74920;SDS011;63483;47.384;8.860;2024-01-25T13:04:37;2.20;;;1.55;;
74920;SDS011;63483;47.384;8.860;2024-01-25T13:07:02;2.20;;;1.50;;
74920;SDS011;63483;47.384;8.860;2024-01-25T13:09:27;2.30;;;1.30;;
74920;SDS011;63483;47.384;8.860;2024-01-25T13:11:54;3.95;;;1.88;;
74920;SDS011;63483;47.384;8.860;2024-01-25T13:14:19;2.07;;;1.57;;
74920;SDS011;63483;47.384;8.860;2024-01-25T13:16:44;2.33;;;1.63;;
74920;SDS011;63483;47.384;8.860;2024-01-25T13:19:10;2.42;;;1.60;;
74920;SDS011;63483;47.384;8.860;2024-01-25T13:21:37;2.40;;;1.60;;
74920;SDS011;63483;47.384;8.860;2024-01-25T13:24:03;3.17;;;1.58;;
74920;SDS011;63483;47.384;8.860;2024-01-25T13:26:28;2.50;;;1.60;;
74920;SDS011;63483;47.384;8.860;2024-01-25T13:28:53;2.40;;;1.40;;
74920;SDS011;63483;47.384;8.860;2024-01-25T13:31:19;2.23;;;1.30;;
74920;SDS011;63483;47.384;8.860;2024-01-25T13:33:44;2.60;;;1.70;;
74920;SDS011;63483;47.384;8.860;2024-01-25T13:36:10;2.13;;;1.10;;
74920;SDS011;63483;47.384;8.860;2024-01-25T13:38:38;1.73;;;1.23;;
74920;SDS011;63483;47.384;8.860;2024-01-25T13:41:04;2.03;;;1.17;;
74920;SDS011;63483;47.384;8.860;2024-01-25T13:43:29;2.23;;;1.63;;
74920;SDS011;63483;47.384;8.860;2024-01-25T13:45:54;1.90;;;1.40;;
74920;SDS011;63483;47.384;8.860;2024-01-25T13:48:20;2.17;;;1.30;;
74920;SDS011;63483;47.384;8.860;2024-01-25T13:50:45;2.00;;;1.42;;
74920;SDS011;63483;47.384;8.860;2024-01-25T13:53:11;2.20;;;1.13;;
74920;SDS011;63483;47.384;8.860;2024-01-25T13:55:36;2.10;;;1.33;;
74920;SDS011;63483;47.384;8.860;2024-01-25T13:58:01;3.17;;;1.77;;
74920;SDS011;63483;47.384;8.860;2024-01-25T14:00:27;2.20;;;1.33;;
74920;SDS011;63483;47.384;8.860;2024-01-25T14:02:52;2.93;;;1.63;;
74920;SDS011;63483;47.384;8.860;2024-01-25T14:05:18;1.70;;;1.10;;
74920;SDS011;63483;47.384;8.860;2024-01-25T14:07:43;2.93;;;2.00;;
74920;SDS011;63483;47.384;8.860;2024-01-25T14:10:09;1.70;;;1.27;;
74920;SDS011;63483;47.384;8.860;2024-01-25T14:12:34;2.97;;;1.47;;
74920;SDS011;63483;47.384;8.860;2024-01-25T14:15:00;1.90;;;1.20;;
74920;SDS011;63483;47.384;8.860;2024-01-25T14:17:25;1.80;;;1.33;;
74920;SDS011;63483;47.384;8.860;2024-01-25T14:19:51;1.90;;;1.40;;
74920;SDS011;63483;47.384;8.860;2024-01-25T14:22:16;1.88;;;1.20;;
74920;SDS011;63483;47.384;8.860;2024-01-25T14:24:42;2.53;;;1.73;;
74920;SDS011;63483;47.384;8.860;2024-01-25T14:27:07;2.20;;;1.20;;
74920;SDS011;63483;47.384;8.860;2024-01-25T14:29:32;1.90;;;1.20;;
74920;SDS011;63483;47.384;8.860;2024-01-25T14:31:59;2.55;;;1.20;;
74920;SDS011;63483;47.384;8.860;2024-01-25T14:34:24;2.77;;;1.20;;
74920;SDS011;63483;47.384;8.860;2024-01-25T14:36:49;1.93;;;0.90;;
74920;SDS011;63483;47.384;8.860;2024-01-25T14:39:16;1.95;;;1.27;;